Time;durP1;ratioP1;P1;durP2;ratioP2;P2;SDS_P1;SDS_P2;PMS_P1;PMS_P2;Temp;Humidity;BMP_temperature;BMP_pressure;BME280_temperature;BME280_humidity;BME280_pressure;Samples;Min_cycle;Max_cycle;Signal;HPM_P1;HPM_P2
2023/03/15 00:01:40;;;;;;;;;;;4.80;99.90;;;;;;5072734;28;20002;-62
2023/03/15 00:04:06;;;;;;;;;;;4.80;99.90;;;;;;5073970;28;19912;-62
2023/03/15 00:06:32;;;;;;;;;;;4.70;99.90;;;;;;5063585;28;20429;-62
2023/03/15 00:08:58;;;;;;;;;;;4.70;99.90;;;;;;5060561;28;19917;-62
2023/03/15 00:11:24;;;;;;;;;;;4.70;99.90;;;;;;5072511;28;19966;-62
2023/03/15 00:13:50;;;;;;;;;;;4.70;99.90;;;;;;5065931;28;19912;-62
2023/03/15 00:16:17;;;;;;;;;;;4.60;99.90;;;;;;5069183;28;19969;-62
2023/03/15 00:18:43;;;;;;;;;;;4.60;99.90;;;;;;5073421;28;19912;-62
2023/03/15 00:21:09;;;;;;;;;;;4.50;99.90;;;;;;5074271;28;19913;-62
2023/03/15 00:23:35;;;;;;;;;;;4.40;99.90;;;;;;5069168;28;19922;-62
2023/03/15 00:26:00;;;;;;;;;;;4.50;99.90;;;;;;5074800;28;19958;-62
2023/03/15 00:28:26;;;;;;;;;;;4.50;99.90;;;;;;5071625;28;20348;-62
2023/03/15 00:31:10;;;;;;;;;;;4.40;99.90;;;;;;5070942;28;20394;-62
2023/03/15 00:33:35;;;;;;;;;;;4.30;99.90;;;;;;5075766;28;19970;-62
2023/03/15 00:36:03;;;;;;;;;;;4.30;99.90;;;;;;5075873;28;19913;-62
2023/03/15 00:38:28;;;;;;;;;;;4.20;99.90;;;;;;5075979;28;20296;-62
2023/03/15 00:40:54;;;;;;;;;;;4.40;99.90;;;;;;5071684;28;19913;-62
2023/03/15 00:43:19;;;;;;;;;;;4.30;99.90;;;;;;5076429;28;19920;-62
2023/03/15 00:45:45;;;;;;;;;;;4.30;99.90;;;;;;5072765;28;20233;-62
2023/03/15 00:48:11;;;;;;;;;;;4.20;99.90;;;;;;5074365;28;19920;-62
2023/03/15 00:50:36;;;;;;;;;;;4.10;99.90;;;;;;5072998;28;19917;-62
2023/03/15 00:53:02;;;;;;;;;;;4.10;99.90;;;;;;5055735;28;19913;-62
2023/03/15 00:55:27;;;;;;;;;;;4.10;99.90;;;;;;5078695;28;19935;-62
2023/03/15 00:57:53;;;;;;;;;;;4.10;99.90;;;;;;5064444;28;20290;-62
2023/03/15 01:00:19;;;;;;;;;;;4.00;99.90;;;;;;5072831;28;19913;-62
2023/03/15 01:02:46;;;;;;;;;;;3.90;99.90;;;;;;5078490;28;19961;-62
2023/03/15 01:05:12;;;;;;;;;;;3.90;99.90;;;;;;5078122;28;20260;-62
2023/03/15 01:07:37;;;;;;;;;;;4.00;99.90;;;;;;5082632;28;20352;-65
2023/03/15 01:10:04;;;;;;;;;;;3.90;99.90;;;;;;5070928;28;19913;-62
2023/03/15 01:12:31;;;;;;;;;;;3.80;99.90;;;;;;5064731;28;19920;-62
2023/03/15 01:14:57;;;;;;;;;;;3.80;99.90;;;;;;5062202;28;19943;-62
2023/03/15 01:17:23;;;;;;;;;;;3.70;99.90;;;;;;5075954;28;19928;-62
2023/03/15 01:19:50;;;;;;;;;;;3.70;99.90;;;;;;5071915;28;19920;-62
2023/03/15 01:22:16;;;;;;;;;;;3.80;99.90;;;;;;5074882;28;19916;-62
2023/03/15 01:24:42;;;;;;;;;;;3.70;99.90;;;;;;5066071;28;19919;-62
2023/03/15 01:27:07;;;;;;;;;;;3.70;99.90;;;;;;5075339;28;19912;-62
2023/03/15 01:29:33;;;;;;;;;;;3.60;99.90;;;;;;5073234;28;20288;-62
2023/03/15 01:31:58;;;;;;;;;;;3.50;99.90;;;;;;5071486;28;19943;-65
2023/03/15 01:34:24;;;;;;;;;;;3.50;99.90;;;;;;5078500;28;19912;-62
2023/03/15 01:36:51;;;;;;;;;;;3.50;99.90;;;;;;5064556;28;19964;-62
2023/03/15 01:39:17;;;;;;;;;;;3.40;99.90;;;;;;5077391;28;19919;-61
2023/03/15 01:41:42;;;;;;;;;;;3.40;99.90;;;;;;5071709;28;19912;-61
2023/03/15 01:44:15;;;;;;;;;;;3.40;99.90;;;;;;5083098;28;19912;-62
2023/03/15 01:46:41;;;;;;;;;;;3.40;99.90;;;;;;5060211;28;19966;-62
2023/03/15 01:49:13;;;;;;;;;;;3.40;99.90;;;;;;5068356;28;19960;-63
2023/03/15 01:51:41;;;;;;;;;;;3.40;99.90;;;;;;5071429;28;19971;-63
2023/03/15 01:54:10;;;;;;;;;;;3.30;99.90;;;;;;5069670;28;19913;-62
2023/03/15 01:56:39;;;;;;;;;;;3.30;99.90;;;;;;5069831;28;20023;-62
2023/03/15 01:59:06;;;;;;;;;;;3.30;99.90;;;;;;5067095;28;19912;-62
2023/03/15 02:01:34;;;;;;;;;;;3.20;99.90;;;;;;5076013;28;19919;-62
2023/03/15 02:04:03;;;;;;;;;;;3.00;99.90;;;;;;5070114;28;20007;-63
2023/03/15 02:06:33;;;;;;;;;;;2.90;99.90;;;;;;5072594;28;19912;-62
2023/03/15 02:09:01;;;;;;;;;;;2.70;99.90;;;;;;5078687;28;20412;-62
2023/03/15 02:11:27;;;;;;;;;;;2.70;99.90;;;;;;5073289;28;19912;-62
2023/03/15 02:13:53;;;;;;;;;;;2.70;99.90;;;;;;5073559;28;20264;-62
2023/03/15 02:16:19;;;;;;;;;;;3.00;99.90;;;;;;5070068;28;20053;-62
2023/03/15 02:18:45;;;;;;;;;;;3.20;99.90;;;;;;5067130;28;19948;-62
2023/03/15 02:21:20;;;;;;;;;;;3.20;99.90;;;;;;5069559;28;19954;-63
2023/03/15 02:23:50;;;;;;;;;;;3.20;99.90;;;;;;5075261;28;19916;-63
2023/03/15 02:26:21;;;;;;;;;;;3.10;99.90;;;;;;5068304;28;19923;-63
2023/03/15 02:28:47;;;;;;;;;;;3.10;99.90;;;;;;5077094;28;20010;-65
2023/03/15 02:31:14;;;;;;;;;;;3.00;99.90;;;;;;5076761;28;20371;-63
2023/03/15 02:33:40;;;;;;;;;;;2.90;99.90;;;;;;5067877;28;20062;-63
2023/03/15 02:36:18;;;;;;;;;;;2.70;99.90;;;;;;5077052;28;19912;-62
2023/03/15 02:38:43;;;;;;;;;;;2.70;99.90;;;;;;5067296;28;20378;-62
2023/03/15 02:41:10;;;;;;;;;;;2.70;99.90;;;;;;5064074;28;19974;-62
2023/03/15 02:43:35;;;;;;;;;;;2.70;99.90;;;;;;5070750;28;20005;-62
2023/03/15 02:46:02;;;;;;;;;;;2.70;99.90;;;;;;5076257;28;19965;-62
2023/03/15 02:48:28;;;;;;;;;;;2.90;99.90;;;;;;5071652;28;19924;-62
2023/03/15 02:50:53;;;;;;;;;;;3.00;99.90;;;;;;5074182;28;20389;-63
2023/03/15 02:53:19;;;;;;;;;;;3.00;99.90;;;;;;5076208;28;20056;-63
2023/03/15 02:55:44;;;;;;;;;;;3.00;99.90;;;;;;5076990;28;19920;-63
2023/03/15 02:58:10;;;;;;;;;;;3.00;99.90;;;;;;5067587;28;19974;-62
2023/03/15 03:00:35;;;;;;;;;;;3.00;99.90;;;;;;5067180;28;19921;-63
2023/03/15 03:03:01;;;;;;;;;;;3.00;99.90;;;;;;5065835;28;19912;-63
2023/03/15 03:05:27;;;;;;;;;;;2.90;99.90;;;;;;5066838;28;19936;-63
2023/03/15 03:07:52;;;;;;;;;;;2.90;99.90;;;;;;5057435;28;19913;-63
2023/03/15 03:10:20;;;;;;;;;;;2.90;99.90;;;;;;5075367;28;19912;-62
2023/03/15 03:12:45;;;;;;;;;;;2.90;99.90;;;;;;5066234;28;20379;-63
2023/03/15 03:15:11;;;;;;;;;;;2.90;99.90;;;;;;5064216;28;19965;-63
2023/03/15 03:17:38;;;;;;;;;;;2.90;99.90;;;;;;5073789;28;20490;-63
2023/03/15 03:20:09;;;;;;;;;;;2.90;99.90;;;;;;5068092;28;20398;-63
2023/03/15 03:22:35;;;;;;;;;;;2.70;99.90;;;;;;5066557;28;19913;-62
2023/03/15 03:25:01;;;;;;;;;;;2.70;99.90;;;;;;5060578;28;19920;-62
2023/03/15 03:27:27;;;;;;;;;;;2.60;99.90;;;;;;5063920;28;19917;-62
2023/03/15 03:29:52;;;;;;;;;;;2.60;99.90;;;;;;5066470;28;19913;-62
2023/03/15 03:32:18;;;;;;;;;;;2.60;99.90;;;;;;5063240;28;19981;-62
2023/03/15 03:34:47;;;;;;;;;;;2.60;99.90;;;;;;5074109;28;19927;-62
2023/03/15 03:37:17;;;;;;;;;;;2.60;99.90;;;;;;5067860;28;19920;-62
2023/03/15 03:39:43;;;;;;;;;;;2.50;99.90;;;;;;5070259;28;19912;-62
2023/03/15 03:42:08;;;;;;;;;;;2.50;99.90;;;;;;5070137;28;19912;-62
2023/03/15 03:44:34;;;;;;;;;;;2.40;99.90;;;;;;5077517;28;20003;-62
2023/03/15 03:46:59;;;;;;;;;;;2.40;99.90;;;;;;5071209;28;19993;-62
2023/03/15 03:49:25;;;;;;;;;;;2.40;99.90;;;;;;5068232;28;19924;-62
2023/03/15 03:51:50;;;;;;;;;;;2.30;99.90;;;;;;5076257;28;20014;-62
2023/03/15 03:54:16;;;;;;;;;;;2.20;99.90;;;;;;5071578;28;19913;-62
2023/03/15 03:56:42;;;;;;;;;;;2.20;99.90;;;;;;5066984;28;19927;-62
2023/03/15 03:59:07;;;;;;;;;;;2.20;99.90;;;;;;5066706;28;20375;-63
2023/03/15 04:01:33;;;;;;;;;;;2.20;99.90;;;;;;5065987;28;20241;-61
2023/03/15 04:03:58;;;;;;;;;;;2.20;99.90;;;;;;5071240;28;19923;-61
2023/03/15 04:06:24;;;;;;;;;;;2.20;99.90;;;;;;5069972;28;19913;-61
2023/03/15 04:08:49;;;;;;;;;;;2.40;99.90;;;;;;5071642;28;19913;-61
2023/03/15 04:11:16;;;;;;;;;;;2.50;99.90;;;;;;5071568;28;19980;-61
2023/03/15 04:13:43;;;;;;;;;;;2.50;99.90;;;;;;5073285;28;19919;-62
2023/03/15 04:16:08;;;;;;;;;;;2.40;99.90;;;;;;5077523;28;20310;-62
2023/03/15 04:18:34;;;;;;;;;;;2.30;99.90;;;;;;5068832;28;19912;-62
2023/03/15 04:21:00;;;;;;;;;;;2.30;99.90;;;;;;5071588;28;19952;-62
2023/03/15 04:23:25;;;;;;;;;;;2.40;99.90;;;;;;5081680;28;20283;-62
2023/03/15 04:25:53;;;;;;;;;;;2.60;99.90;;;;;;5070650;28;20248;-62
2023/03/15 04:28:21;;;;;;;;;;;2.70;99.90;;;;;;5068518;28;19920;-62
2023/03/15 04:30:47;;;;;;;;;;;2.80;99.90;;;;;;5059584;28;20008;-63
2023/03/15 04:33:13;;;;;;;;;;;2.80;99.90;;;;;;5057320;28;20004;-62
2023/03/15 04:35:41;;;;;;;;;;;2.80;99.90;;;;;;5062127;28;20643;-62
2023/03/15 04:38:07;;;;;;;;;;;2.80;99.90;;;;;;5067167;28;19958;-62
2023/03/15 04:40:33;;;;;;;;;;;2.70;99.90;;;;;;5060713;28;20002;-62
2023/03/15 04:43:00;;;;;;;;;;;2.70;99.90;;;;;;5052565;28;19920;-61
2023/03/15 04:45:27;;;;;;;;;;;2.70;99.90;;;;;;5058345;28;19973;-62
2023/03/15 04:47:53;;;;;;;;;;;2.80;99.90;;;;;;5057958;28;20399;-62
2023/03/15 04:50:19;;;;;;;;;;;2.70;99.90;;;;;;5056477;28;19912;-62
2023/03/15 04:52:45;;;;;;;;;;;2.70;99.90;;;;;;5054165;28;19913;-62
2023/03/15 04:55:11;;;;;;;;;;;2.70;99.90;;;;;;5059465;28;19919;-61
2023/03/15 04:57:36;;;;;;;;;;;2.80;99.90;;;;;;5054966;28;19974;-62
2023/03/15 05:00:05;;;;;;;;;;;2.70;99.90;;;;;;5052648;28;19924;-63
2023/03/15 05:02:30;;;;;;;;;;;2.80;99.90;;;;;;5057618;28;20376;-63
2023/03/15 05:04:56;;;;;;;;;;;2.80;99.90;;;;;;5056993;28;19920;-62
2023/03/15 05:07:21;;;;;;;;;;;2.80;99.90;;;;;;5063623;28;19915;-62
2023/03/15 05:09:47;;;;;;;;;;;2.80;99.90;;;;;;5061502;28;19912;-62
2023/03/15 05:12:13;;;;;;;;;;;2.80;99.90;;;;;;5055432;28;19913;-62
2023/03/15 05:14:38;;;;;;;;;;;2.70;99.90;;;;;;5058615;28;20011;-62
2023/03/15 05:17:04;;;;;;;;;;;2.70;99.90;;;;;;5056941;28;20249;-62
2023/03/15 05:19:33;;;;;;;;;;;2.70;99.90;;;;;;5063635;28;19913;-61
2023/03/15 05:21:59;;;;;;;;;;;2.70;99.90;;;;;;5062356;28;20613;-62
2023/03/15 05:24:25;;;;;;;;;;;2.70;99.90;;;;;;5058625;28;19912;-61
2023/03/15 05:26:53;;;;;;;;;;;2.60;99.90;;;;;;5059031;28;20387;-61
2023/03/15 05:29:20;;;;;;;;;;;2.70;99.90;;;;;;5055913;28;20011;-61
2023/03/15 05:31:46;;;;;;;;;;;2.60;99.90;;;;;;5061556;28;19916;-61
2023/03/15 05:34:12;;;;;;;;;;;2.60;99.90;;;;;;5059275;28;20432;-61
2023/03/15 05:36:37;;;;;;;;;;;2.50;99.90;;;;;;5061484;28;20019;-62
2023/03/15 05:39:03;;;;;;;;;;;2.50;99.90;;;;;;5057723;28;19935;-61
2023/03/15 05:41:29;;;;;;;;;;;2.40;99.90;;;;;;5052747;28;20360;-62
2023/03/15 05:43:54;;;;;;;;;;;2.40;99.90;;;;;;5058296;28;19950;-62
2023/03/15 05:46:21;;;;;;;;;;;2.40;99.90;;;;;;5055731;28;19914;-62
2023/03/15 05:48:47;;;;;;;;;;;2.40;99.90;;;;;;5056689;28;19920;-62
2023/03/15 05:51:13;;;;;;;;;;;2.40;99.90;;;;;;5062866;28;20282;-61
2023/03/15 05:53:39;;;;;;;;;;;2.40;99.90;;;;;;5059928;28;19913;-62
2023/03/15 05:56:04;;;;;;;;;;;2.40;99.90;;;;;;5058427;28;19919;-62
2023/03/15 05:58:30;;;;;;;;;;;2.30;99.90;;;;;;5052893;28;19913;-61
2023/03/15 06:00:56;;;;;;;;;;;2.30;99.90;;;;;;5071429;28;19923;-62
2023/03/15 06:03:21;;;;;;;;;;;2.20;99.90;;;;;;5072602;28;20372;-62
2023/03/15 06:05:47;;;;;;;;;;;2.20;99.90;;;;;;5079711;28;19913;-62
2023/03/15 06:08:13;;;;;;;;;;;2.00;99.90;;;;;;5076957;28;19919;-62
2023/03/15 06:10:39;;;;;;;;;;;2.00;99.90;;;;;;5075924;28;20005;-61
2023/03/15 06:13:04;;;;;;;;;;;1.90;99.90;;;;;;5071351;28;19913;-62
2023/03/15 06:15:30;;;;;;;;;;;1.70;99.90;;;;;;5070391;28;20322;-61
2023/03/15 06:17:56;;;;;;;;;;;1.70;99.90;;;;;;5077446;28;19934;-62
2023/03/15 06:20:21;;;;;;;;;;;1.70;99.90;;;;;;5068888;28;20367;-61
2023/03/15 06:22:47;;;;;;;;;;;1.70;99.90;;;;;;5076813;28;19962;-62
2023/03/15 06:25:13;;;;;;;;;;;1.70;99.90;;;;;;5070164;28;20382;-62
2023/03/15 06:27:39;;;;;;;;;;;1.60;99.90;;;;;;5065192;28;19912;-62
2023/03/15 06:30:05;;;;;;;;;;;1.60;99.90;;;;;;5072628;28;19916;-62
2023/03/15 06:32:31;;;;;;;;;;;1.60;99.90;;;;;;5078077;28;19912;-62
2023/03/15 06:34:56;;;;;;;;;;;1.60;99.90;;;;;;5066972;28;20326;-62
2023/03/15 06:37:22;;;;;;;;;;;1.70;99.90;;;;;;5071092;28;19928;-62
2023/03/15 06:39:47;;;;;;;;;;;1.80;99.90;;;;;;5069306;28;19948;-62
2023/03/15 06:42:13;;;;;;;;;;;1.80;99.90;;;;;;5070170;28;19979;-62
2023/03/15 06:44:40;;;;;;;;;;;1.80;99.90;;;;;;5069191;28;19919;-62
2023/03/15 06:47:06;;;;;;;;;;;1.80;99.90;;;;;;5075319;28;19921;-62
2023/03/15 06:49:32;;;;;;;;;;;2.00;99.90;;;;;;5069005;28;19920;-62
2023/03/15 06:51:57;;;;;;;;;;;2.00;99.90;;;;;;5063100;28;19912;-63
2023/03/15 06:54:23;;;;;;;;;;;2.10;99.90;;;;;;5066698;28;19912;-62
2023/03/15 06:56:49;;;;;;;;;;;2.20;99.90;;;;;;5076345;28;20000;-63
2023/03/15 06:59:15;;;;;;;;;;;2.20;99.90;;;;;;5074778;28;20291;-61
2023/03/15 07:01:41;;;;;;;;;;;2.30;99.90;;;;;;5071838;28;19912;-63
2023/03/15 07:04:06;;;;;;;;;;;2.30;99.90;;;;;;5070343;28;19916;-62
2023/03/15 07:06:32;;;;;;;;;;;2.40;99.90;;;;;;5069414;28;19913;-62
2023/03/15 07:08:58;;;;;;;;;;;2.40;99.90;;;;;;5072264;28;19920;-63
2023/03/15 07:11:24;;;;;;;;;;;2.40;99.90;;;;;;5077528;28;19912;-62
2023/03/15 07:13:49;;;;;;;;;;;2.50;99.90;;;;;;5071779;28;19912;-61
2023/03/15 07:16:15;;;;;;;;;;;2.50;99.90;;;;;;5071635;28;20367;-62
2023/03/15 07:18:40;;;;;;;;;;;2.50;99.90;;;;;;5067074;28;19916;-63
2023/03/15 07:21:09;;;;;;;;;;;2.60;99.90;;;;;;5070290;28;19913;-63
2023/03/15 07:23:34;;;;;;;;;;;2.60;99.90;;;;;;5073440;28;19912;-63
2023/03/15 07:26:00;;;;;;;;;;;2.60;99.90;;;;;;5070042;28;20454;-62
2023/03/15 07:28:26;;;;;;;;;;;2.70;99.90;;;;;;5082978;28;19927;-63
2023/03/15 07:30:52;;;;;;;;;;;2.80;99.90;;;;;;5070521;28;19913;-62
2023/03/15 07:33:21;;;;;;;;;;;2.80;99.90;;;;;;5069439;28;19916;-61
2023/03/15 07:35:47;;;;;;;;;;;2.80;99.90;;;;;;5080851;28;19939;-63
2023/03/15 07:38:12;;;;;;;;;;;2.90;99.90;;;;;;5068718;28;20383;-62
2023/03/15 07:40:38;;;;;;;;;;;2.90;99.90;;;;;;5064470;28;20375;-63
2023/03/15 07:43:05;;;;;;;;;;;2.90;99.90;;;;;;5064595;28;19913;-63
2023/03/15 07:45:30;;;;;;;;;;;3.00;99.90;;;;;;5069615;28;19918;-63
2023/03/15 07:47:56;;;;;;;;;;;3.00;99.90;;;;;;5065619;28;19925;-63
2023/03/15 07:50:22;;;;;;;;;;;3.00;99.90;;;;;;5069332;28;19913;-63
2023/03/15 07:52:47;;;;;;;;;;;3.20;99.90;;;;;;5067723;28;19919;-63
2023/03/15 07:55:13;;;;;;;;;;;3.30;99.90;;;;;;5073150;28;19912;-63
2023/03/15 07:57:39;;;;;;;;;;;3.40;99.90;;;;;;5074777;28;19920;-63
2023/03/15 08:00:05;;;;;;;;;;;3.50;99.90;;;;;;5066690;28;19913;-63
2023/03/15 08:02:31;;;;;;;;;;;3.60;99.90;;;;;;5072176;28;19912;-62
2023/03/15 08:04:57;;;;;;;;;;;3.60;99.90;;;;;;5066249;28;19971;-61
2023/03/15 08:07:23;;;;;;;;;;;3.60;99.90;;;;;;5061213;28;20376;-62
2023/03/15 08:09:48;;;;;;;;;;;3.70;99.90;;;;;;5063263;28;19919;-62
2023/03/15 08:12:14;;;;;;;;;;;3.80;99.90;;;;;;5066014;28;19973;-62
2023/03/15 08:14:39;;;;;;;;;;;3.90;99.90;;;;;;5061087;28;20054;-63
2023/03/15 08:17:05;;;;;;;;;;;3.90;99.90;;;;;;5064340;28;19927;-62
2023/03/15 08:19:31;;;;;;;;;;;3.90;99.90;;;;;;5067658;28;19920;-62
2023/03/15 08:21:56;;;;;;;;;;;4.00;99.90;;;;;;5070387;28;20494;-62
2023/03/15 08:24:22;;;;;;;;;;;4.10;99.90;;;;;;5065857;28;19912;-62
2023/03/15 08:26:47;;;;;;;;;;;4.10;99.90;;;;;;5064455;28;20261;-62
2023/03/15 08:29:14;;;;;;;;;;;4.20;99.90;;;;;;5062926;28;20001;-62
2023/03/15 08:31:40;;;;;;;;;;;4.20;99.90;;;;;;5063453;28;20009;-63
2023/03/15 08:34:06;;;;;;;;;;;4.30;99.90;;;;;;5061863;28;20034;-63
2023/03/15 08:36:31;;;;;;;;;;;4.40;99.90;;;;;;5068797;28;19924;-63
2023/03/15 08:38:57;;;;;;;;;;;4.40;99.90;;;;;;5070960;28;19916;-63
2023/03/15 08:41:22;;;;;;;;;;;4.60;99.90;;;;;;5062572;28;19923;-61
2023/03/15 08:43:48;;;;;;;;;;;4.60;99.90;;;;;;5073320;28;19916;-62
2023/03/15 08:46:14;;;;;;;;;;;4.80;99.90;;;;;;5071430;28;20012;-62
2023/03/15 08:48:39;;;;;;;;;;;4.90;99.90;;;;;;5068801;28;19916;-62
2023/03/15 08:51:06;;;;;;;;;;;4.90;99.90;;;;;;5075470;28;19912;-62
2023/03/15 08:53:32;;;;;;;;;;;5.00;99.90;;;;;;5071641;28;19974;-62
2023/03/15 08:55:57;;;;;;;;;;;5.10;99.90;;;;;;5061934;28;19912;-62
2023/03/15 08:58:23;;;;;;;;;;;5.20;99.90;;;;;;5063701;28;19932;-62
2023/03/15 09:00:50;;;;;;;;;;;5.20;99.90;;;;;;5076378;28;19913;-62
2023/03/15 09:03:16;;;;;;;;;;;5.40;99.90;;;;;;5060339;28;20280;-62
2023/03/15 09:05:41;;;;;;;;;;;5.50;99.90;;;;;;5067374;28;20382;-61
2023/03/15 09:08:07;;;;;;;;;;;5.60;99.90;;;;;;5068469;28;20279;-62
2023/03/15 09:10:33;;;;;;;;;;;5.80;99.90;;;;;;5073156;28;19918;-62
2023/03/15 09:12:59;;;;;;;;;;;5.80;99.90;;;;;;5061499;28;19979;-64
2023/03/15 09:15:25;;;;;;;;;;;6.00;99.90;;;;;;5066433;28;19916;-62
2023/03/15 09:17:51;;;;;;;;;;;6.20;99.90;;;;;;5070707;28;19924;-60
2023/03/15 09:20:19;;;;;;;;;;;6.40;99.90;;;;;;5066659;28;19916;-60
2023/03/15 09:22:49;;;;;;;;;;;6.60;99.90;;;;;;5069442;28;19923;-60
2023/03/15 09:25:15;;;;;;;;;;;6.80;99.90;;;;;;5069492;28;19920;-61
2023/03/15 09:27:40;;;;;;;;;;;6.90;99.90;;;;;;5062899;28;20229;-61
2023/03/15 09:30:06;;;;;;;;;;;7.10;99.90;;;;;;5063622;28;19913;-61
2023/03/15 09:32:35;;;;;;;;;;;7.10;99.90;;;;;;5071365;28;20431;-62
2023/03/15 09:35:02;;;;;;;;;;;7.30;99.90;;;;;;5065736;28;20284;-62
2023/03/15 09:37:27;;;;;;;;;;;7.40;99.90;;;;;;5065095;28;20379;-62
2023/03/15 09:39:53;;;;;;;;;;;7.50;99.90;;;;;;5068767;28;19958;-63
2023/03/15 09:42:27;;;;;;;;;;;7.70;99.90;;;;;;5075464;28;19916;-62
2023/03/15 09:45:02;;;;;;;;;;;7.80;99.90;;;;;;5065981;28;19913;-62
2023/03/15 09:47:47;;;;;;;;;;;7.80;99.90;;;;;;5093803;28;19974;-62
2023/03/15 09:50:33;;;;;;;;;;;8.00;99.90;;;;;;5062970;28;20417;-62
2023/03/15 09:53:01;;;;;;;;;;;8.00;99.90;;;;;;5067216;28;19919;-62
2023/03/15 09:55:27;;;;;;;;;;;8.00;99.90;;;;;;5067002;28;19947;-62
2023/03/15 09:58:03;;;;;;;;;;;8.30;99.90;;;;;;5069745;28;19920;-61
2023/03/15 10:00:29;;;;;;;;;;;8.30;99.90;;;;;;5076734;28;19912;-62
2023/03/15 10:02:58;;;;;;;;;;;8.40;99.90;;;;;;5075036;28;19912;-62
2023/03/15 10:05:44;;;;;;;;;;;8.40;99.90;;;;;;5072254;28;20035;-62
2023/03/15 10:08:14;;;;;;;;;;;8.30;99.90;;;;;;5062324;28;19912;-62
2023/03/15 10:11:00;;;;;;;;;;;8.40;99.90;;;;;;5072434;28;19916;-62
2023/03/15 10:13:34;;;;;;;;;;;8.50;99.90;;;;;;5041292;28;20497;-62
2023/03/15 10:16:20;;;;;;;;;;;8.80;99.90;;;;;;5054336;28;19947;-62
2023/03/15 10:18:52;;;;;;;;;;;9.00;99.90;;;;;;5065941;28;19924;-62
2023/03/15 10:21:37;;;;;;;;;;;9.10;99.90;;;;;;5070555;28;19920;-62
2023/03/15 10:24:04;;;;;;;;;;;9.30;99.90;;;;;;5059337;28;20003;-63
2023/03/15 10:26:33;;;;;;;;;;;9.40;99.90;;;;;;5063302;28;19913;-63
2023/03/15 10:29:01;;;;;;;;;;;9.20;99.90;;;;;;5061305;28;19966;-63
2023/03/15 10:31:30;;;;;;;;;;;9.30;99.90;;;;;;5068327;28;20024;-61
2023/03/15 10:33:56;;;;;;;;;;;9.30;99.90;;;;;;5068598;28;19956;-62
2023/03/15 10:36:22;;;;;;;;;;;9.40;99.90;;;;;;5066401;28;19959;-62
2023/03/15 10:38:49;;;;;;;;;;;9.50;99.90;;;;;;5067260;28;19928;-61
2023/03/15 10:41:28;;;;;;;;;;;9.60;99.90;;;;;;5063279;28;19912;-62
2023/03/15 10:44:02;;;;;;;;;;;9.80;99.90;;;;;;5073170;28;19966;-61
2023/03/15 10:46:27;;;;;;;;;;;9.90;99.90;;;;;;5068124;28;20258;-61
2023/03/15 10:48:56;;;;;;;;;;;9.90;99.90;;;;;;5062450;28;19995;-62
2023/03/15 10:51:29;;;;;;;;;;;9.60;99.90;;;;;;5062359;28;19924;-62
2023/03/15 10:54:06;;;;;;;;;;;9.60;99.90;;;;;;5066352;28;19919;-62
2023/03/15 10:56:36;;;;;;;;;;;9.70;99.90;;;;;;5058504;28;19913;-61
2023/03/15 10:59:02;;;;;;;;;;;9.60;99.90;;;;;;5061546;28;20428;-62
2023/03/15 11:01:33;;;;;;;;;;;9.40;99.90;;;;;;5066033;28;20014;-61
2023/03/15 11:04:08;;;;;;;;;;;9.20;99.90;;;;;;5062107;28;19912;-62
2023/03/15 11:06:40;;;;;;;;;;;9.30;99.90;;;;;;5060796;28;19916;-61
2023/03/15 11:09:13;;;;;;;;;;;9.50;99.90;;;;;;5060224;28;20355;-61
2023/03/15 11:11:50;;;;;;;;;;;9.60;99.90;;;;;;5066426;28;19912;-63
2023/03/15 11:14:16;;;;;;;;;;;9.70;99.90;;;;;;5063676;28;19919;-61
2023/03/15 11:16:45;;;;;;;;;;;9.60;99.90;;;;;;5058957;28;19928;-62
2023/03/15 11:19:14;;;;;;;;;;;9.50;99.90;;;;;;5065665;28;20347;-62
2023/03/15 11:21:40;;;;;;;;;;;9.50;99.90;;;;;;5071727;28;19966;-61
2023/03/15 11:24:07;;;;;;;;;;;9.70;99.90;;;;;;5060084;28;19912;-62
2023/03/15 11:26:37;;;;;;;;;;;9.90;99.90;;;;;;5060699;28;19974;-61
2023/03/15 11:29:23;;;;;;;;;;;9.80;99.90;;;;;;5056732;28;19965;-62
2023/03/15 11:31:49;;;;;;;;;;;9.80;99.90;;;;;;5065428;28;19963;-61
2023/03/15 11:34:35;;;;;;;;;;;10.00;99.90;;;;;;5075258;28;19912;-62
2023/03/15 11:37:03;;;;;;;;;;;10.20;99.90;;;;;;5060438;28;19924;-61
2023/03/15 11:39:38;;;;;;;;;;;10.40;99.90;;;;;;5058260;28;19913;-61
2023/03/15 11:42:09;;;;;;;;;;;10.50;99.90;;;;;;5070413;28;19912;-61
2023/03/15 11:44:38;;;;;;;;;;;10.60;99.90;;;;;;5069724;28;19951;-61
2023/03/15 11:47:15;;;;;;;;;;;10.10;99.90;;;;;;5056288;28;19932;-62
2023/03/15 11:49:50;;;;;;;;;;;10.10;99.90;;;;;;5061877;28;20034;-62
2023/03/15 11:52:16;;;;;;;;;;;10.30;99.90;;;;;;5067719;28;20011;-62
2023/03/15 11:54:43;;;;;;;;;;;10.50;99.90;;;;;;5066070;28;19928;-61
2023/03/15 11:57:28;;;;;;;;;;;11.00;99.90;;;;;;5067226;28;19928;-62
2023/03/15 11:59:56;;;;;;;;;;;11.00;99.90;;;;;;5068006;28;19921;-61
2023/03/15 12:02:21;;;;;;;;;;;11.20;99.90;;;;;;5056029;28;20341;-61
2023/03/15 12:04:51;;;;;;;;;;;11.40;99.90;;;;;;5060768;28;19927;-61
2023/03/15 12:07:17;;;;;;;;;;;11.40;99.90;;;;;;5090130;28;19919;-62
2023/03/15 12:09:50;;;;;;;;;;;11.40;99.90;;;;;;5057679;28;19913;-62
2023/03/15 12:12:22;;;;;;;;;;;11.10;99.90;;;;;;5066070;28;19975;-64
2023/03/15 12:14:59;;;;;;;;;;;11.20;99.90;;;;;;5070807;28;19916;-65
2023/03/15 12:17:28;;;;;;;;;;;11.20;99.90;;;;;;5064639;28;20011;-63
2023/03/15 12:20:06;;;;;;;;;;;11.20;99.90;;;;;;5071441;28;19958;-63
2023/03/15 12:22:34;;;;;;;;;;;11.30;99.90;;;;;;5073600;28;19916;-63
2023/03/15 12:25:04;;;;;;;;;;;11.40;99.90;;;;;;5067607;28;20344;-64
2023/03/15 12:27:30;;;;;;;;;;;11.50;99.90;;;;;;5066054;28;19962;-64
2023/03/15 12:30:00;;;;;;;;;;;11.70;99.90;;;;;;5067594;28;19948;-65
2023/03/15 12:32:26;;;;;;;;;;;11.60;99.90;;;;;;5068043;28;19920;-64
2023/03/15 12:34:53;;;;;;;;;;;11.50;99.90;;;;;;5065468;28;19917;-65
2023/03/15 12:37:25;;;;;;;;;;;11.60;99.90;;;;;;5062853;28;19924;-64
2023/03/15 12:40:06;;;;;;;;;;;11.50;99.90;;;;;;5069785;28;19981;-64
2023/03/15 12:42:32;;;;;;;;;;;11.30;99.90;;;;;;5066662;28;19916;-64
2023/03/15 12:45:21;;;;;;;;;;;11.30;99.90;;;;;;5062369;28;19966;-64
2023/03/15 12:47:50;;;;;;;;;;;11.10;99.90;;;;;;5064112;28;19920;-63
2023/03/15 12:50:34;;;;;;;;;;;11.00;99.90;;;;;;5069387;28;19912;-63
2023/03/15 12:53:00;;;;;;;;;;;10.60;99.90;;;;;;5066249;28;19958;-63
2023/03/15 12:55:33;;;;;;;;;;;10.80;99.90;;;;;;5070852;28;19913;-63
2023/03/15 12:57:59;;;;;;;;;;;10.80;99.90;;;;;;5065424;28;20283;-64
2023/03/15 13:00:26;;;;;;;;;;;10.50;99.90;;;;;;5063925;28;19958;-64
2023/03/15 13:02:57;;;;;;;;;;;10.50;99.90;;;;;;5068146;28;19947;-63
2023/03/15 13:05:24;;;;;;;;;;;10.70;99.90;;;;;;5072116;28;19913;-64
2023/03/15 13:07:59;;;;;;;;;;;10.70;99.90;;;;;;5065110;28;19926;-64
2023/03/15 13:10:43;;;;;;;;;;;10.60;99.90;;;;;;5067788;28;19912;-64
2023/03/15 13:13:27;;;;;;;;;;;10.90;99.90;;;;;;5064956;28;19959;-65
2023/03/15 13:15:59;;;;;;;;;;;10.90;99.90;;;;;;5071214;28;19912;-65
2023/03/15 13:18:26;;;;;;;;;;;10.90;99.90;;;;;;5062097;28;20283;-64
2023/03/15 13:21:01;;;;;;;;;;;10.80;99.90;;;;;;5058901;28;20429;-66
2023/03/15 13:23:30;;;;;;;;;;;10.60;99.90;;;;;;5070064;28;19983;-65
2023/03/15 13:26:02;;;;;;;;;;;10.50;99.90;;;;;;5065155;28;19936;-64
2023/03/15 13:28:46;;;;;;;;;;;10.10;99.90;;;;;;5063884;28;19987;-64
2023/03/15 13:31:17;;;;;;;;;;;10.00;99.90;;;;;;5068497;28;19919;-65
2023/03/15 13:33:46;;;;;;;;;;;9.70;99.90;;;;;;5063029;28;19912;-64
2023/03/15 13:36:16;;;;;;;;;;;9.90;99.90;;;;;;5066483;28;19912;-64
2023/03/15 13:38:47;;;;;;;;;;;10.00;99.90;;;;;;5069370;28;19970;-63
2023/03/15 13:41:19;;;;;;;;;;;10.00;99.90;;;;;;5070735;28;19921;-64
2023/03/15 13:43:45;;;;;;;;;;;10.00;99.90;;;;;;5063448;28;20364;-64
2023/03/15 13:46:10;;;;;;;;;;;10.00;99.90;;;;;;5067930;28;19920;-65
2023/03/15 13:48:39;;;;;;;;;;;9.90;99.90;;;;;;5071583;28;19990;-65
2023/03/15 13:51:18;;;;;;;;;;;9.80;99.90;;;;;;5068067;28;20298;-64
2023/03/15 13:53:45;;;;;;;;;;;9.90;99.90;;;;;;5063820;28;19920;-64
2023/03/15 13:56:14;;;;;;;;;;;9.80;99.90;;;;;;5066427;28;19918;-63
2023/03/15 13:58:40;;;;;;;;;;;9.60;99.90;;;;;;5062214;28;19921;-61
2023/03/15 14:01:07;;;;;;;;;;;9.60;99.90;;;;;;5072242;28;19919;-65
2023/03/15 14:03:36;;;;;;;;;;;9.70;99.90;;;;;;5059198;28;19913;-66
2023/03/15 14:06:03;;;;;;;;;;;9.70;99.90;;;;;;5067442;28;19913;-65
2023/03/15 14:08:36;;;;;;;;;;;9.80;99.90;;;;;;5069627;28;19963;-65
2023/03/15 14:11:04;;;;;;;;;;;9.90;99.90;;;;;;5064906;28;19916;-63
2023/03/15 14:13:34;;;;;;;;;;;9.80;99.90;;;;;;5069406;28;19983;-63
2023/03/15 14:16:00;;;;;;;;;;;9.80;99.90;;;;;;5058633;28;19921;-64
2023/03/15 14:18:31;;;;;;;;;;;10.10;99.90;;;;;;5054918;28;20352;-64
2023/03/15 14:21:16;;;;;;;;;;;10.00;99.90;;;;;;5057991;28;19942;-64
2023/03/15 14:23:46;;;;;;;;;;;10.10;99.90;;;;;;5055919;28;19959;-64
2023/03/15 14:26:16;;;;;;;;;;;10.20;99.90;;;;;;5058729;28;20016;-64
2023/03/15 14:28:46;;;;;;;;;;;10.20;99.90;;;;;;5053829;28;20124;-64
2023/03/15 14:31:22;;;;;;;;;;;10.30;99.90;;;;;;5056364;28;19974;-63
2023/03/15 14:33:52;;;;;;;;;;;10.10;99.90;;;;;;5055183;28;19917;-63